Latest Weather Observations for Moss Vale

IDN60801

Issued at 8:05 am EST Thursday 21 August 2014 (issued every 30 minutes, with the page automatically refreshed every 10 minutes)

About weather observations | Map of weather stations | Latest weather observations for NSW | Other Formats
Station Details ID: 068239 Name: MOSS VALE AWS Lat: -34.53 Lon: 150.42 Height: 678.4 m
Data from the previous 72 hours. | See also: Recent months at Moss Vale
Date/Time
EST
Temp
°C
App
Temp
°C
Dew
Point
Rel
Hum
%
Delta-T
°C
Wind Press
QNH
hPa
Press
MSL
hPa
Rain
since 9 am
mm
Dir
 
Spd
km/h
Gust
km/h
Spd
kts
Gust
kts
21/08:00am 6.0 3.0 4.3 89 0.8 SSW 9 13 5 7 1029.0 1029.6 0.6
21/07:30am 5.8 2.8 4.1 89 0.7 S 9 15 5 8 1028.7 - 0.6
21/07:00am 5.5 2.8 3.8 89 0.7 SW 7 9 4 5 1028.3 1028.9 0.6
21/06:30am 5.2 2.5 3.5 89 0.7 SSW 7 11 4 6 1028.1 - 0.4
21/06:00am 4.3 2.7 2.7 89 0.7 SSW 0 0 0 0 1027.8 1028.4 0.4
21/05:30am 3.9 2.3 2.3 89 0.7 CALM 0 4 0 2 1027.5 - 0.4
21/05:00am 3.4 0.0 1.8 89 0.7 SSW 9 9 5 5 1027.4 1027.9 0.2
21/04:42am 2.7 -0.3 1.1 89 0.6 SW 6 11 3 6 1027.1 - 0.2
21/04:30am 3.3 1.6 1.7 89 0.7 CALM 0 0 0 0 1027.2 - 0.2
21/04:00am 1.7 -1.0 0.1 89 0.6 NNE 4 9 2 5 1027.1 1027.7 0.2
21/03:30am 2.0 -1.3 0.4 89 0.6 WSW 7 9 4 5 1026.9 - 0.2
21/03:00am 0.6 -2.9 -1.0 89 0.6 WNW 7 9 4 5 1027.0 1027.6 0.2
21/02:30am 0.8 -1.7 -0.8 89 0.6 W 2 7 1 4 1026.9 - 0.2
21/02:00am 0.8 -1.3 -1.0 88 0.7 CALM 0 0 0 0 1027.1 1027.7 0.2
21/01:30am 1.9 -0.1 0.1 88 0.7 CALM 0 6 0 3 1027.2 - 0.0
21/01:00am 2.7 -0.3 0.9 88 0.7 W 6 7 3 4 1027.4 1027.9 0.0
21/12:30am 3.6 0.6 1.8 88 0.7 N 7 7 4 4 1027.4 - 0.0
21/12:00am 3.2 -0.2 1.6 89 0.6 N 9 11 5 6 1027.5 1028.0 0.0
 
Date/Time
EST
Temp
°C
App
Temp
°C
Dew
Point
Rel
Hum
%
Delta-T
°C
Wind Press
QNH
hPa
Press
MSL
hPa
Rain
since 9 am
mm
Dir
 
Spd
km/h
Gust
km/h
Spd
kts
Gust
kts
20/11:53pm 3.3 -0.1 1.7 89 0.7 N 9 11 5 6 1027.5 - 0.0
20/11:50pm 3.3 -0.2 1.5 88 0.7 N 9 11 5 6 1027.5 - 0.0
20/11:32pm 3.5 0.6 1.4 86 0.9 N 6 7 3 4 1027.5 - 0.0
20/11:30pm 3.4 0.4 1.1 85 0.9 NNE 6 7 3 4 1027.5 - 0.0
20/11:00pm 5.1 1.1 2.6 84 1.1 S 13 13 7 7 1027.4 1027.9 0.0
20/10:30pm 6.0 2.6 3.8 86 1.0 SSE 11 15 6 8 1027.5 - 0.0
20/10:00pm 5.6 1.4 3.8 88 0.8 SSE 15 17 8 9 1027.5 1028.0 0.0
20/09:30pm 5.4 0.7 3.4 87 0.9 SE 17 19 9 10 1027.5 - 0.0
20/09:00pm 5.6 2.5 3.4 86 1.0 SE 9 13 5 7 1027.4 1027.9 0.0
20/08:30pm 5.4 2.2 3.3 86 0.9 SE 9 11 5 6 1027.1 - 0.0
20/08:00pm 5.5 2.7 3.3 86 0.9 ESE 7 9 4 5 1026.9 1027.5 0.0
20/07:30pm 5.9 3.3 3.4 84 1.1 SE 6 11 3 6 1026.7 - 0.0
20/07:00pm 6.2 2.8 3.9 85 1.0 SSE 11 15 6 8 1026.4 1027.0 0.0
20/06:30pm 6.6 2.8 3.8 82 1.2 SE 13 17 7 9 1026.0 - 0.0
20/06:00pm 6.9 3.4 3.3 78 1.6 SE 11 13 6 7 1025.6 1026.2 0.0
20/05:30pm 7.8 3.5 3.3 73 2.0 SE 15 20 8 11 1025.3 - 0.0
20/05:00pm 8.7 4.1 3.5 70 2.3 SE 17 22 9 12 1025.1 1025.7 0.0
20/04:30pm 9.7 6.0 2.3 60 3.3 SE 11 15 6 8 1024.8 - 0.0
20/04:00pm 10.0 5.7 3.1 62 3.1 SE 15 20 8 11 1024.6 1025.1 0.0
20/03:30pm 10.1 6.8 2.5 59 3.4 E 9 15 5 8 1024.5 - 0.0
20/03:00pm 10.6 6.1 2.4 57 3.6 SE 15 20 8 11 1024.3 1024.8 0.0
20/02:30pm 10.6 6.6 2.9 59 3.5 E 13 17 7 9 1024.0 - 0.0
20/02:00pm 11.6 8.8 3.4 57 3.7 SE 7 24 4 13 1024.0 1024.6 0.0
20/01:30pm 9.8 5.2 1.5 56 3.6 S 15 19 8 10 1024.2 - 0.0
20/01:00pm 10.4 5.6 2.7 59 3.4 SSE 17 20 9 11 1024.2 1024.7 0.0
20/12:30pm 9.8 5.3 2.4 60 3.3 S 15 19 8 10 1024.5 - 0.0
20/12:00pm 9.4 4.7 0.8 55 3.6 SSE 15 19 8 10 1024.9 1025.4 0.0
20/11:30am 9.5 5.4 2.1 60 3.2 S 13 19 7 10 1025.0 - 0.0
20/11:00am 8.7 4.6 2.5 65 2.7 SSW 13 19 7 10 1025.2 1025.8 0.0
20/10:30am 8.3 2.9 1.0 60 3.1 S 19 24 10 13 1025.1 - 0.0
20/10:00am 7.7 2.6 0.7 61 2.9 S 17 28 9 15 1025.1 1025.7 0.0
20/09:30am 7.5 2.5 1.4 65 2.6 S 17 22 9 12 1025.1 - 0.0
20/09:00am 7.2 2.5 0.9 64 2.6 SSW 15 22 8 12 1024.9 1025.4 2.8
20/08:30am 6.7 2.4 1.0 67 2.4 SSW 13 19 7 10 1024.8 - 2.8
20/08:00am 6.3 2.5 1.6 72 2.0 SW 11 17 6 9 1024.5 1025.0 2.8
20/07:30am 5.8 2.9 1.5 74 1.8 SW 6 9 3 5 1024.2 - 2.8
20/07:00am 5.4 2.0 1.7 77 1.5 SSW 9 13 5 7 1023.9 1024.5 2.8
20/06:30am 5.6 1.0 1.5 75 1.7 S 15 19 8 10 1023.6 - 2.8
20/06:00am 5.6 1.0 1.5 75 1.7 SSW 15 20 8 11 1023.1 1023.6 2.8
20/05:30am 5.6 1.3 1.2 73 1.8 SW 13 17 7 9 1022.8 - 2.8
20/05:00am 5.3 1.4 1.2 75 1.7 SSW 11 20 6 11 1022.6 1023.1 2.8
20/04:30am 4.9 1.3 0.9 75 1.6 SSW 9 13 5 7 1022.3 - 2.8
20/04:00am 5.3 1.0 0.9 73 1.8 SW 13 19 7 10 1022.0 1022.5 2.8
20/03:30am 4.6 0.2 0.6 75 1.6 SSW 13 17 7 9 1021.8 - 2.8
20/03:00am 5.7 0.7 1.4 74 1.8 S 17 24 9 13 1021.8 1022.3 2.8
20/02:30am 5.6 0.9 1.2 73 1.8 SSW 15 20 8 11 1021.9 - 2.8
20/02:00am 5.3 1.0 0.7 72 1.9 SW 13 19 7 10 1021.9 1022.4 2.8
20/01:30am 5.5 0.8 1.1 73 1.8 SW 15 20 8 11 1022.0 - 2.8
20/01:00am 5.5 -0.1 1.4 75 1.7 SSW 20 28 11 15 1022.0 1022.5 2.8
20/12:30am 5.8 -1.0 1.0 71 2.0 SSW 26 39 14 21 1022.0 - 2.8
20/12:00am 6.0 -0.1 0.6 68 2.2 SSW 22 30 12 16 1022.0 1022.5 2.8
 
Date/Time
EST
Temp
°C
App
Temp
°C
Dew
Point
Rel
Hum
%
Delta-T
°C
Wind Press
QNH
hPa
Press
MSL
hPa
Rain
since 9 am
mm
Dir
 
Spd
km/h
Gust
km/h
Spd
kts
Gust
kts
19/11:30pm 5.7 0.0 0.7 70 2.0 SSW 20 28 11 15 1022.0 - 2.8
19/11:00pm 5.6 -0.8 0.8 71 2.0 S 24 32 13 17 1021.9 1022.4 2.8
19/10:30pm 5.9 -0.5 0.9 70 2.1 S 24 35 13 19 1021.7 - 2.8
19/10:00pm 6.0 0.6 1.0 70 2.1 SSW 19 28 10 15 1022.0 1022.5 2.8
19/09:30pm 6.1 1.1 1.2 71 2.0 SSW 17 32 9 17 1021.8 - 2.8
19/09:00pm 6.5 1.0 2.0 73 1.9 S 20 28 11 15 1021.6 1022.1 2.8
19/08:30pm 6.8 -0.2 2.1 72 2.0 S 28 43 15 23 1021.5 - 2.8
19/08:00pm 7.2 0.8 3.1 75 1.8 S 26 39 14 21 1021.6 1022.1 2.8
19/07:30pm 7.4 -0.3 3.5 76 1.7 S 33 50 18 27 1021.1 - 2.8
19/07:26pm 7.4 -0.1 3.3 75 1.8 S 32 50 17 27 1020.9 - 2.8
19/07:00pm 7.5 0.8 3.6 76 1.7 S 28 33 15 18 1020.7 1021.2 2.8
19/06:30pm 7.6 1.3 3.8 77 1.7 S 26 37 14 20 1020.3 - 2.8
19/06:00pm 7.7 0.7 3.9 77 1.7 S 30 39 16 21 1019.7 1020.1 2.8
19/05:42pm 8.0 1.4 4.0 76 1.8 S 28 48 15 26 1019.5 - 2.8
19/05:30pm 8.0 1.8 4.4 78 1.6 S 26 37 14 20 1019.5 - 2.8
19/05:00pm 7.9 2.5 4.7 80 1.5 S 22 35 12 19 1019.1 1019.6 2.8
19/04:36pm 7.8 0.9 4.6 80 1.5 S 30 43 16 23 1018.8 - 2.8
19/04:30pm 7.8 1.3 4.6 80 1.5 S 28 43 15 23 1018.7 - 2.8
19/04:25pm 7.7 1.6 4.8 82 1.3 S 26 35 14 19 1018.8 - 2.8
19/04:06pm 7.4 1.3 4.7 83 1.2 S 26 41 14 22 1018.7 - 2.8
19/04:00pm 7.4 0.9 4.7 83 1.2 S 28 39 15 21 1018.6 1019.0 2.8
19/03:48pm 7.4 -0.1 4.4 81 1.4 S 33 52 18 28 1018.4 - 2.8
19/03:46pm 7.5 0.2 4.5 81 1.4 S 32 52 17 28 1018.4 - 2.8
19/03:44pm 7.5 0.2 4.3 80 1.4 S 32 52 17 28 1018.4 - 2.8
19/03:30pm 7.4 -0.9 4.4 81 1.4 S 37 57 20 31 1018.3 - 2.8
19/03:28pm 7.3 -1.4 4.3 81 1.4 S 39 57 21 31 1018.3 - 2.8
19/03:21pm 7.9 0.1 4.8 81 1.4 S 35 48 19 26 1018.1 - 2.8
19/03:12pm 8.0 0.8 5.1 82 1.3 S 32 50 17 27 1018.1 - 2.8
19/03:08pm 8.1 0.7 5.0 81 1.4 S 33 50 18 27 1017.9 - 2.8
19/03:00pm 8.3 0.9 4.9 79 1.6 S 33 46 18 25 1017.9 1018.3 2.8
19/02:37pm 8.8 1.1 5.4 79 1.6 S 35 54 19 29 1017.5 - 2.6
19/02:32pm 9.0 1.8 5.0 76 1.9 S 32 54 17 29 1017.2 - 2.6
19/02:30pm 9.0 2.6 5.2 77 1.8 S 28 43 15 23 1017.3 - 2.6
19/02:15pm 9.2 3.2 5.4 77 1.8 S 26 39 14 21 1017.3 - 2.6
19/02:07pm 9.0 2.6 5.4 78 1.7 S 28 46 15 25 1017.3 - 2.6
19/02:00pm 8.9 2.1 5.3 78 1.7 S 30 43 16 23 1017.2 1017.6 2.6
19/01:30pm 8.8 2.5 5.5 80 1.6 S 28 39 15 21 1017.2 - 2.6
19/01:01pm 8.7 2.0 5.4 80 1.5 S 30 43 16 23 1017.2 - 2.4
19/01:00pm 8.9 1.9 5.8 81 1.5 S 32 48 17 26 1017.1 1017.5 2.4
19/12:54pm 8.8 1.5 5.4 79 1.6 S 33 52 18 28 1017.2 - 2.4
19/12:53pm 8.6 1.2 5.2 79 1.6 S 33 52 18 28 1017.2 - 2.4
19/12:38pm 8.3 2.4 5.6 83 1.3 S 26 35 14 19 1017.2 - 2.4
19/12:30pm 8.5 1.3 5.8 83 1.3 S 33 44 18 24 1017.2 - 2.4
19/12:23pm 8.5 0.8 5.3 80 1.5 S 35 50 19 27 1017.3 - 2.2
19/12:00pm 8.4 1.2 5.7 83 1.3 S 33 54 18 29 1017.5 1018.0 2.0
19/11:59am 8.3 1.0 5.4 82 1.4 S 33 54 18 29 1017.4 - 2.0
19/11:45am 8.7 1.6 6.2 84 1.2 S 33 44 18 24 1017.5 - 1.8
19/11:35am 8.4 1.3 5.7 83 1.3 S 32 41 17 22 1017.5 - 1.8
19/11:30am 8.9 2.0 6.3 84 1.2 S 32 43 17 23 1017.4 - 1.6
19/11:18am 8.5 0.9 5.8 83 1.3 S 35 54 19 29 1017.4 - 1.6
19/11:16am 8.4 0.8 5.7 83 1.3 S 35 54 19 29 1017.4 - 1.6
19/11:00am 8.6 1.6 5.9 83 1.3 S 32 43 17 23 1017.4 1017.8 1.4
19/10:47am 8.9 1.9 6.0 82 1.4 S 32 46 17 25 1017.5 - 1.2
19/10:30am 8.6 2.0 6.2 85 1.1 S 30 41 16 22 1017.4 - 1.2
19/10:00am 8.1 1.0 5.6 84 1.2 S 32 46 17 25 1017.3 1017.7 0.4
19/09:49am 8.4 1.3 5.5 82 1.4 S 32 50 17 27 1017.2 - 0.0
19/09:43am 8.7 1.6 5.4 80 1.5 S 32 43 17 23 1017.1 - 0.0
19/09:30am 8.9 2.2 5.6 80 1.6 S 30 41 16 22 1017.0 - 0.0
19/09:00am 8.5 1.2 5.6 82 1.4 S 33 54 18 29 1016.9 1017.3 31.8
19/08:40am 8.4 1.3 5.7 83 1.3 S 32 50 17 27 1016.7 - 31.8
19/08:31am 8.4 0.7 5.5 82 1.4 S 35 46 19 25 1016.6 - 31.8
19/08:30am 8.4 0.4 5.5 82 1.4 S 37 46 20 25 1016.5 - 31.8
19/08:00am 8.6 0.6 5.5 81 1.5 S 37 48 20 26 1016.0 1016.4 31.6
19/07:37am 8.8 2.1 5.4 79 1.6 S 30 54 16 29 1015.7 - 31.6
19/07:30am 8.5 1.8 5.4 81 1.5 S 30 46 16 25 1015.7 - 31.6
19/07:11am 8.2 1.1 5.3 82 1.4 S 32 41 17 22 1015.7 - 31.6
19/07:00am 8.2 0.2 5.7 84 1.2 S 37 52 20 28 1015.5 1015.9 31.6
19/06:50am 8.2 0.2 5.7 84 1.2 S 37 56 20 30 1015.4 - 31.6
19/06:32am 8.2 1.2 5.8 85 1.1 S 32 50 17 27 1015.1 - 31.4
19/06:30am 8.2 1.0 5.8 85 1.1 S 33 50 18 27 1015.1 - 31.4
19/06:10am 8.3 1.3 5.9 85 1.1 S 32 50 17 27 1014.8 - 31.2
19/06:00am 8.2 1.0 5.8 85 1.1 S 33 46 18 25 1014.6 1015.0 31.0
19/05:34am 8.3 2.0 5.9 85 1.1 S 28 39 15 21 1014.3 - 30.2
19/05:30am 8.3 2.4 5.8 84 1.2 S 26 39 14 21 1014.3 - 30.2
19/05:28am 8.4 2.1 5.9 84 1.2 S 28 48 15 26 1014.3 - 30.0
19/05:25am 8.4 1.8 5.9 84 1.2 S 30 48 16 26 1014.3 - 30.0
19/05:21am 8.3 1.3 5.8 84 1.2 S 32 48 17 26 1014.2 - 30.0
19/05:11am 8.3 1.3 5.9 85 1.1 S 32 44 17 24 1014.2 - 30.0
19/05:03am 8.4 1.2 5.9 84 1.2 S 33 44 18 24 1014.1 - 30.0
19/05:00am 8.4 1.2 5.9 84 1.2 S 33 46 18 25 1014.0 1014.4 30.0
19/04:30am 8.4 0.4 5.9 84 1.2 S 37 57 20 31 1013.7 - 29.0
19/04:24am 8.3 0.7 5.8 84 1.2 S 35 54 19 29 1013.6 - 28.8
19/04:23am 8.4 0.8 5.9 84 1.2 S 35 46 19 25 1013.6 - 28.8
19/04:18am 8.4 0.8 5.9 84 1.2 S 35 46 19 25 1013.3 - 28.8
19/04:17am 8.4 0.8 5.7 83 1.3 S 35 46 19 25 1013.3 - 28.8
19/04:02am 8.4 1.2 5.7 83 1.3 S 33 52 18 28 1013.2 - 28.6
19/04:00am 8.4 1.4 5.9 84 1.2 S 32 46 17 25 1013.3 1013.6 28.6
19/03:51am 8.6 1.0 5.7 82 1.4 S 35 46 19 25 1013.0 - 28.6
19/03:35am 8.6 -0.5 5.7 82 1.4 S 43 61 23 33 1013.2 - 28.6
19/03:30am 8.6 -0.8 5.5 81 1.5 S 44 59 24 32 1013.2 - 28.6
19/03:29am 8.6 -0.8 5.5 81 1.5 S 44 61 24 33 1013.2 - 28.6
19/03:00am 8.3 0.0 6.1 86 1.0 S 39 63 21 34 1013.0 1013.4 28.4
19/02:48am 8.3 1.4 6.3 87 1.0 S 32 52 17 28 1012.8 - 28.2
19/02:30am 8.3 1.8 6.3 87 1.0 S 30 41 16 22 1012.7 - 27.8
19/02:10am 8.3 2.1 6.3 87 1.0 S 28 48 15 26 1012.7 - 27.4
19/02:00am 8.3 1.7 6.1 86 1.0 S 30 41 16 22 1012.7 1013.1 27.0
19/01:44am 8.7 1.8 6.3 85 1.1 S 32 48 17 26 1012.7 - 26.6
19/01:43am 8.6 2.0 6.2 85 1.1 S 30 46 16 25 1012.8 - 26.6
19/01:30am 8.6 2.5 6.4 86 1.1 S 28 48 15 26 1012.9 - 26.6
19/01:10am 8.5 2.4 6.5 87 1.0 S 28 46 15 25 1012.7 - 26.4
19/01:00am 8.4 2.3 6.4 87 1.0 S 28 43 15 23 1012.8 1013.2 26.2
19/12:30am 8.2 2.0 6.2 87 1.0 SSW 28 39 15 21 1012.6 - 25.6
19/12:00am 8.2 2.5 6.8 91 0.7 S 26 35 14 19 1012.4 1012.7 24.4
 
Date/Time
EST
Temp
°C
App
Temp
°C
Dew
Point
Rel
Hum
%
Delta-T
°C
Wind Press
QNH
hPa
Press
MSL
hPa
Rain
since 9 am
mm
Dir
 
Spd
km/h
Gust
km/h
Spd
kts
Gust
kts
18/11:30pm 8.0 2.3 6.6 91 0.7 S 26 33 14 18 1012.3 - 23.2
18/11:00pm 8.0 1.1 6.5 90 0.7 SSW 32 44 17 24 1012.0 1012.3 22.2
18/10:30pm 8.0 0.9 6.5 90 0.7 SSW 33 44 18 24 1011.8 - 21.4
18/10:00pm 8.0 0.9 6.5 90 0.7 SSW 33 50 18 27 1011.6 1011.9 20.2
18/09:46pm 8.1 1.2 6.6 90 0.7 SSW 32 54 17 29 1011.4 - 19.8
18/09:30pm 8.2 0.4 6.7 90 0.7 S 37 46 20 25 1011.4 - 19.0
18/09:07pm 8.4 0.7 6.9 90 0.7 SSW 37 56 20 30 1011.0 - 18.0
18/09:00pm 8.3 0.9 6.8 90 0.7 SSW 35 50 19 27 1011.2 1011.6 17.4
18/08:30pm 8.5 0.0 6.8 89 0.8 S 41 61 22 33 1010.9 - 16.0
18/08:00pm 8.6 0.9 7.1 90 0.7 S 37 59 20 32 1010.6 1010.9 15.0
18/07:38pm 8.6 0.1 6.9 89 0.8 S 41 61 22 33 1010.1 - 14.0
18/07:30pm 8.6 0.5 6.9 89 0.8 S 39 56 21 30 1010.3 - 13.8
18/07:00pm 8.5 0.0 6.8 89 0.8 SSW 41 59 22 32 1009.8 1010.1 12.6
18/06:30pm 8.3 0.1 6.4 88 0.9 SSW 39 69 21 37 1009.4 - 11.6
18/06:00pm 8.3 -0.8 6.6 89 0.8 SSW 44 69 24 37 1009.2 1009.5 11.0
18/05:30pm 8.3 -0.7 6.6 89 0.8 SSW 43 65 23 35 1008.8 - 10.4
18/05:00pm 8.3 -0.3 6.6 89 0.8 S 41 63 22 34 1008.5 1008.7 9.8
18/04:51pm 8.3 0.1 6.6 89 0.8 S 39 59 21 32 1008.2 - 9.8
18/04:30pm 8.2 0.0 6.5 89 0.8 S 39 54 21 29 1008.0 - 9.4
18/04:04pm 8.3 0.1 6.6 89 0.8 SSW 39 61 21 33 1007.8 - 9.0
18/04:00pm 8.3 0.5 6.6 89 0.8 SSW 37 52 20 28 1007.8 1008.1 8.8
18/03:50pm 8.5 1.1 6.8 89 0.8 SSW 35 54 19 29 1007.9 - 8.6
18/03:30pm 8.4 0.2 6.7 89 0.8 S 39 56 21 30 1007.6 - 8.2
18/03:24pm 8.4 1.4 6.7 89 0.8 S 33 54 18 29 1007.5 - 8.2
18/03:00pm 8.6 0.8 6.6 87 1.0 S 37 52 20 28 1007.6 1007.9 7.6
18/02:37pm 8.9 2.9 7.2 89 0.8 S 28 61 15 33 1007.4 - 7.6
18/02:30pm 8.9 3.3 7.2 89 0.8 S 26 43 14 23 1007.5 - 7.4
18/02:07pm 8.8 2.4 6.9 88 0.9 S 30 48 16 26 1007.5 - 6.8
18/02:04pm 8.8 1.8 6.9 88 0.9 S 33 48 18 26 1007.5 - 6.6
18/02:00pm 8.7 1.3 6.8 88 0.9 S 35 48 19 26 1007.4 1007.6 6.4
18/01:59pm 8.8 1.8 6.9 88 0.9 S 33 48 18 26 1007.3 - 6.4
18/01:30pm 9.1 2.2 7.1 87 1.0 S 33 54 18 29 1007.1 - 5.6
18/01:20pm 9.1 1.4 7.1 87 1.0 S 37 56 20 30 1007.2 - 5.6
18/01:05pm 9.2 1.4 6.8 85 1.2 S 37 63 20 34 1007.2 - 5.4
18/01:00pm 9.1 0.9 6.7 85 1.2 S 39 63 21 34 1007.3 1007.5 5.4
18/12:30pm 9.0 1.3 7.1 88 0.9 S 37 56 20 30 1007.4 - 5.0
18/12:00pm 8.9 0.7 6.7 86 1.1 S 39 59 21 32 1007.5 1007.8 4.4
18/11:30am 9.2 1.9 7.2 87 1.0 S 35 54 19 29 1007.5 - 3.8
18/11:00am 8.9 1.5 6.9 87 1.0 S 35 54 19 29 1007.5 1007.8 3.4
18/10:33am 8.9 1.2 6.9 87 1.0 S 37 61 20 33 1007.6 - 3.0
18/10:30am 9.0 0.9 6.8 86 1.1 S 39 61 21 33 1007.6 - 3.0
18/10:00am 8.3 1.4 6.4 88 0.9 S 32 44 17 24 1007.3 1007.5 2.2
18/09:30am 8.6 1.2 6.7 88 0.9 S 35 57 19 31 1007.2 - 1.0
18/09:00am 8.3 -0.3 6.4 88 0.9 SSE 41 61 22 33 1006.7 1007.0 72.2
18/08:30am 8.3 -0.3 6.4 88 0.9 SSE 41 65 22 35 1006.3 - 71.2

Other Formats:

Comma delimited format used in spreadsheet applications
http://www.bom.gov.au/fwo/IDN60801/IDN60801.94746.axf

JavaScript Object Notation format (JSON) in row-major order
http://www.bom.gov.au/fwo/IDN60801/IDN60801.94746.json